Aviation Digital Data Service (ADDS)

Output produced by METARs form (0401 UTC 26 June 2019)
found at http://www.aviationweather.gov/metar/data/
 
Forecast for: MUHA (HAVANA/JOSE MAR , CU)
Text: MUHA 252300Z 2600/2624 09004KT 9000 FEW030
Forecast period: 0000 to 1300 UTC 26 June 2019
Forecast type: FROM: standard forecast or significant change
Winds: from the E (90 degrees) at 5 MPH (4 knots; 2.1 m/s)
Visibility: 6 miles (9 km)
Ceiling: at least 12,000 feet AGL
Clouds: few clouds at 3000 feet AGL
Weather: no significant weather forecast for this period
Text: BECMG 2613/2615 06012KT
Forecast period: 1300 UTC 26 June 2019 to 0000 UTC 27 June 2019
Forecast type: BECOMING: Conditions expected to become as follows by 1500 UTC 26 June 2019
Winds: from the ENE (60 degrees) at 14 MPH (12 knots; 6.2 m/s)
Visibility: 6 miles (9 km)
Ceiling: at least 12,000 feet AGL
Clouds: few clouds at 3000 feet AGL
Weather: no significant weather forecast for this period